Time;durP1;ratioP1;P1;durP2;ratioP2;P2;SDS_P1;SDS_P2;PMS_P1;PMS_P2;Temp;Humidity;BMP_temperature;BMP_pressure;BME280_temperature;BME280_humidity;BME280_pressure;Samples;Min_cycle;Max_cycle;Signal;HPM_P1;HPM_P2
2024/02/18 00:02:14;;;;;;;;;12.25;12.25;;;;;;;;5088277;28;10376;-85
2024/02/18 00:04:41;;;;;;;;;14.25;12.25;;;;;;;;5089195;28;10351;-86
2024/02/18 00:07:09;;;;;;;;;16.25;14.50;;;;;;;;5088638;28;11188;-84
2024/02/18 00:09:36;;;;;;;;;20.75;18.25;;;;;;;;5089417;28;10507;-83
2024/02/18 00:12:04;;;;;;;;;13.25;13.25;;;;;;;;5101573;28;10528;-83
2024/02/18 00:14:31;;;;;;;;;16.75;14.75;;;;;;;;5102488;28;10470;-83
2024/02/18 00:17:00;;;;;;;;;20.25;18.50;;;;;;;;5091785;28;10414;-83
2024/02/18 00:19:27;;;;;;;;;15.00;14.00;;;;;;;;5091577;28;10380;-84
2024/02/18 00:21:55;;;;;;;;;14.25;14.25;;;;;;;;5080806;28;10406;-84
2024/02/18 00:24:22;;;;;;;;;23.25;18.75;;;;;;;;5092710;28;10459;-84
2024/02/18 00:26:51;;;;;;;;;18.75;18.75;;;;;;;;5093739;28;10561;-85
2024/02/18 00:29:18;;;;;;;;;17.75;16.25;;;;;;;;5108026;28;10500;-85
2024/02/18 00:31:46;;;;;;;;;16.50;16.50;;;;;;;;5102278;28;10341;-84
2024/02/18 00:34:20;;;;;;;;;15.25;15.25;;;;;;;;5101109;28;10629;-84
2024/02/18 00:36:47;;;;;;;;;13.50;13.50;;;;;;;;5091068;28;10551;-85
2024/02/18 00:39:18;;;;;;;;;21.75;19.75;;;;;;;;5091875;28;10314;-85
2024/02/18 00:41:45;;;;;;;;;18.25;15.00;;;;;;;;5092577;28;10724;-85
2024/02/18 00:44:14;;;;;;;;;15.25;15.25;;;;;;;;5091686;28;10690;-84
2024/02/18 00:46:41;;;;;;;;;16.25;14.25;;;;;;;;5092245;28;11403;-84
2024/02/18 00:49:08;;;;;;;;;17.00;17.00;;;;;;;;5091831;28;10482;-83
2024/02/18 00:51:37;;;;;;;;;17.00;13.25;;;;;;;;5092262;28;11210;-83
2024/02/18 00:54:05;;;;;;;;;17.00;13.50;;;;;;;;5091368;28;10413;-83
2024/02/18 00:56:32;;;;;;;;;17.75;17.75;;;;;;;;5092030;28;10685;-85
2024/02/18 00:58:59;;;;;;;;;15.25;14.00;;;;;;;;5091629;28;10581;-84
2024/02/18 01:01:26;;;;;;;;;20.25;19.25;;;;;;;;5094573;28;10699;-84
2024/02/18 01:03:54;;;;;;;;;17.00;15.75;;;;;;;;5081281;28;11420;-82
2024/02/18 01:06:21;;;;;;;;;13.75;13.75;;;;;;;;5117112;27;10471;-84
2024/02/18 01:08:52;;;;;;;;;16.25;15.50;;;;;;;;5101435;28;10617;-84
2024/02/18 01:11:20;;;;;;;;;13.75;13.75;;;;;;;;5092719;28;10521;-84
2024/02/18 01:13:47;;;;;;;;;13.00;13.00;;;;;;;;5091818;28;10593;-85
2024/02/18 01:16:15;;;;;;;;;24.00;19.50;;;;;;;;5091651;28;11481;-86
2024/02/18 01:18:43;;;;;;;;;16.00;15.00;;;;;;;;5090770;28;11435;-85
2024/02/18 01:21:10;;;;;;;;;20.25;18.75;;;;;;;;5091018;28;10443;-85
2024/02/18 01:23:38;;;;;;;;;13.75;13.75;;;;;;;;5091976;28;10749;-85
2024/02/18 01:26:07;;;;;;;;;17.75;15.50;;;;;;;;5103558;28;10580;-86
2024/02/18 01:28:34;;;;;;;;;17.75;15.00;;;;;;;;5091652;28;10704;-85
2024/02/18 01:31:02;;;;;;;;;21.50;16.00;;;;;;;;5093138;28;10451;-85
2024/02/18 01:33:29;;;;;;;;;19.00;17.50;;;;;;;;5093691;28;10639;-84
2024/02/18 01:35:57;;;;;;;;;15.25;15.00;;;;;;;;5091346;28;10854;-84
2024/02/18 01:38:24;;;;;;;;;17.75;16.00;;;;;;;;5091477;28;10638;-85
2024/02/18 01:40:54;;;;;;;;;15.25;15.25;;;;;;;;5091032;28;10688;-84
2024/02/18 01:43:23;;;;;;;;;12.75;11.00;;;;;;;;5091700;28;10813;-85
2024/02/18 01:45:51;;;;;;;;;15.75;14.50;;;;;;;;5074265;28;10624;-84
2024/02/18 01:48:19;;;;;;;;;10.75;10.50;;;;;;;;5099483;28;10750;-83
2024/02/18 01:50:47;;;;;;;;;15.00;15.00;;;;;;;;5090332;28;10526;-84
2024/02/18 01:53:15;;;;;;;;;13.25;13.00;;;;;;;;5090995;28;10629;-85
2024/02/18 01:55:44;;;;;;;;;17.75;14.25;;;;;;;;5090579;28;10562;-85
2024/02/18 01:58:12;;;;;;;;;18.00;14.00;;;;;;;;5090944;28;10641;-84
2024/02/18 02:00:41;;;;;;;;;16.00;16.00;;;;;;;;5100166;28;10660;-83
2024/02/18 02:03:09;;;;;;;;;14.50;11.25;;;;;;;;5101624;28;10720;-84
2024/02/18 02:05:41;;;;;;;;;14.50;12.00;;;;;;;;5092339;28;10546;-84
2024/02/18 02:08:09;;;;;;;;;18.00;14.75;;;;;;;;5094836;28;10440;-83
2024/02/18 02:10:36;;;;;;;;;11.75;11.75;;;;;;;;5096124;28;10548;-84
2024/02/18 02:13:05;;;;;;;;;13.75;13.50;;;;;;;;5096847;28;10690;-84
2024/02/18 02:15:34;;;;;;;;;15.50;12.25;;;;;;;;5085763;28;10629;-84
2024/02/18 02:18:03;;;;;;;;;16.00;13.50;;;;;;;;5095876;28;10821;-85
2024/02/18 02:20:30;;;;;;;;;18.50;17.00;;;;;;;;5095303;28;11318;-84
2024/02/18 02:22:58;;;;;;;;;12.00;11.00;;;;;;;;5093914;28;10645;-86
2024/02/18 02:25:26;;;;;;;;;13.75;12.50;;;;;;;;5090220;28;11265;-86
2024/02/18 02:28:00;;;;;;;;;13.00;13.00;;;;;;;;5089762;28;10566;-84
2024/02/18 02:30:29;;;;;;;;;17.25;16.00;;;;;;;;5089986;28;10372;-86
2024/02/18 02:32:57;;;;;;;;;12.50;10.50;;;;;;;;5088578;28;10776;-85
2024/02/18 02:35:27;;;;;;;;;15.25;15.25;;;;;;;;5090490;28;10543;-85
2024/02/18 02:37:57;;;;;;;;;11.25;11.25;;;;;;;;5089702;28;10573;-85
2024/02/18 02:40:25;;;;;;;;;13.00;12.00;;;;;;;;5101605;28;10472;-85
2024/02/18 02:42:53;;;;;;;;;12.25;11.50;;;;;;;;5072494;28;10490;-83
2024/02/18 02:45:20;;;;;;;;;12.75;11.50;;;;;;;;5090171;28;10570;-85
2024/02/18 02:47:50;;;;;;;;;16.00;14.25;;;;;;;;5088812;28;10478;-86
2024/02/18 02:50:18;;;;;;;;;9.00;9.00;;;;;;;;5090074;28;10650;-85
2024/02/18 02:52:45;;;;;;;;;16.75;11.00;;;;;;;;5090920;28;11311;-85
2024/02/18 02:55:13;;;;;;;;;11.75;9.75;;;;;;;;5093162;28;10492;-83
2024/02/18 02:57:40;;;;;;;;;14.50;10.50;;;;;;;;5092744;28;10651;-84
2024/02/18 03:00:10;;;;;;;;;11.00;10.00;;;;;;;;5089559;28;10548;-84
2024/02/18 03:02:37;;;;;;;;;11.50;11.00;;;;;;;;5089488;28;10536;-85
2024/02/18 03:05:07;;;;;;;;;15.00;11.00;;;;;;;;5087757;28;10501;-84
2024/02/18 03:07:36;;;;;;;;;11.00;9.00;;;;;;;;5071325;28;10512;-83
2024/02/18 03:10:04;;;;;;;;;11.50;11.50;;;;;;;;5089168;28;10691;-85
2024/02/18 03:12:31;;;;;;;;;12.50;11.50;;;;;;;;5089254;28;10740;-83
2024/02/18 03:14:59;;;;;;;;;14.50;12.50;;;;;;;;5083378;28;10537;-85
2024/02/18 03:17:27;;;;;;;;;16.00;13.50;;;;;;;;5098140;28;10661;-82
2024/02/18 03:19:54;;;;;;;;;11.00;11.00;;;;;;;;5089311;28;10733;-83
2024/02/18 03:22:24;;;;;;;;;9.75;9.75;;;;;;;;5087789;28;10570;-84
2024/02/18 03:24:51;;;;;;;;;12.50;11.75;;;;;;;;5089111;28;10548;-84
2024/02/18 03:27:21;;;;;;;;;12.75;11.00;;;;;;;;5089012;28;10554;-83
2024/02/18 03:29:48;;;;;;;;;9.00;9.00;;;;;;;;5089383;28;10639;-84
2024/02/18 03:32:16;;;;;;;;;12.50;10.50;;;;;;;;5089566;28;10368;-85
2024/02/18 03:34:44;;;;;;;;;10.00;9.50;;;;;;;;5094116;28;10579;-83
2024/02/18 03:37:11;;;;;;;;;10.50;10.50;;;;;;;;5104270;28;10667;-84
2024/02/18 03:39:41;;;;;;;;;9.25;9.25;;;;;;;;5110728;28;10619;-84
2024/02/18 03:42:09;;;;;;;;;12.50;10.75;;;;;;;;5083923;28;10437;-84
2024/02/18 03:44:36;;;;;;;;;10.75;10.75;;;;;;;;5088027;28;10612;-84
2024/02/18 03:47:03;;;;;;;;;11.75;11.25;;;;;;;;5088993;28;10398;-83
2024/02/18 03:49:30;;;;;;;;;9.25;9.25;;;;;;;;5089500;28;11366;-84
2024/02/18 03:51:58;;;;;;;;;10.00;10.00;;;;;;;;5088194;28;11201;-84
2024/02/18 03:54:25;;;;;;;;;10.00;10.00;;;;;;;;5072324;28;10538;-83
2024/02/18 03:56:55;;;;;;;;;9.75;9.75;;;;;;;;5103855;28;10559;-84
2024/02/18 03:59:23;;;;;;;;;12.00;9.50;;;;;;;;5092539;28;10525;-84
2024/02/18 04:01:50;;;;;;;;;9.25;9.25;;;;;;;;5074395;28;10559;-84
2024/02/18 04:04:18;;;;;;;;;12.50;10.75;;;;;;;;5075561;28;10460;-83
2024/02/18 04:06:45;;;;;;;;;11.50;10.00;;;;;;;;5094502;28;10650;-84
2024/02/18 04:09:12;;;;;;;;;11.50;11.25;;;;;;;;5095331;28;10501;-84
2024/02/18 04:11:39;;;;;;;;;11.50;6.00;;;;;;;;5108675;28;10647;-84
2024/02/18 04:14:10;;;;;;;;;13.75;11.25;;;;;;;;5078638;28;10659;-83
2024/02/18 04:16:37;;;;;;;;;12.00;10.25;;;;;;;;5085835;28;10570;-84
2024/02/18 04:19:06;;;;;;;;;4.00;3.75;;;;;;;;5073348;28;10693;-84
2024/02/18 04:21:33;;;;;;;;;11.00;9.25;;;;;;;;5092388;28;10660;-85
2024/02/18 04:24:00;;;;;;;;;9.75;8.50;;;;;;;;5088086;28;10715;-85
2024/02/18 04:26:27;;;;;;;;;13.00;8.50;;;;;;;;5091786;28;10921;-85
2024/02/18 04:28:55;;;;;;;;;9.75;8.00;;;;;;;;5092310;28;10815;-83
2024/02/18 04:31:23;;;;;;;;;8.25;8.25;;;;;;;;5086770;28;10567;-85
2024/02/18 04:33:51;;;;;;;;;7.25;7.25;;;;;;;;5092428;28;11414;-84
2024/02/18 04:36:18;;;;;;;;;8.00;5.75;;;;;;;;5092419;28;10795;-84
2024/02/18 04:38:47;;;;;;;;;4.50;4.50;;;;;;;;5092326;28;10770;-84
2024/02/18 04:41:16;;;;;;;;;13.00;9.50;;;;;;;;5092899;28;10601;-85
2024/02/18 04:43:44;;;;;;;;;9.25;9.25;;;;;;;;5093648;28;10587;-85
2024/02/18 04:46:11;;;;;;;;;9.75;8.75;;;;;;;;5094953;28;10539;-85
2024/02/18 04:48:40;;;;;;;;;12.00;10.25;;;;;;;;5086715;28;10533;-85
2024/02/18 04:51:08;;;;;;;;;10.00;10.00;;;;;;;;5092262;28;10875;-84
2024/02/18 04:53:36;;;;;;;;;11.25;9.50;;;;;;;;5091790;28;10683;-84
2024/02/18 04:56:03;;;;;;;;;10.00;10.00;;;;;;;;5091264;28;11374;-84
2024/02/18 04:58:30;;;;;;;;;9.00;9.00;;;;;;;;5079229;28;10785;-83
2024/02/18 05:00:58;;;;;;;;;10.00;10.00;;;;;;;;5090511;28;10679;-83
2024/02/18 05:03:25;;;;;;;;;8.00;8.00;;;;;;;;5091873;28;10787;-83
2024/02/18 05:05:56;;;;;;;;;10.50;8.75;;;;;;;;5103874;28;10680;-84
2024/02/18 05:08:24;;;;;;;;;8.00;8.00;;;;;;;;5093286;28;10655;-84
2024/02/18 05:10:51;;;;;;;;;8.00;8.00;;;;;;;;5092937;28;10663;-84
2024/02/18 05:13:18;;;;;;;;;7.00;7.00;;;;;;;;5091948;28;10860;-82
2024/02/18 05:15:51;;;;;;;;;9.00;9.00;;;;;;;;5090994;28;10670;-83
2024/02/18 05:18:19;;;;;;;;;9.00;9.00;;;;;;;;5090700;28;10596;-84
2024/02/18 05:20:46;;;;;;;;;10.00;10.00;;;;;;;;5091035;28;10743;-84
2024/02/18 05:23:15;;;;;;;;;12.75;8.50;;;;;;;;5080133;28;10802;-83
2024/02/18 05:25:44;;;;;;;;;8.25;8.25;;;;;;;;5088630;28;10696;-83
2024/02/18 05:28:12;;;;;;;;;9.75;8.25;;;;;;;;5089795;28;10573;-83
2024/02/18 05:30:39;;;;;;;;;8.50;6.00;;;;;;;;5090918;28;10574;-84
2024/02/18 05:33:06;;;;;;;;;10.25;8.50;;;;;;;;5090475;28;10744;-84
2024/02/18 05:35:34;;;;;;;;;10.75;10.75;;;;;;;;5090539;28;10781;-84
2024/02/18 05:38:01;;;;;;;;;8.25;8.25;;;;;;;;5090902;28;10934;-83
2024/02/18 05:40:30;;;;;;;;;11.75;9.00;;;;;;;;5090755;28;10562;-83
2024/02/18 05:42:57;;;;;;;;;12.75;9.00;;;;;;;;5091612;28;10689;-82
2024/02/18 05:45:31;;;;;;;;;11.25;9.75;;;;;;;;5092652;28;10817;-83
2024/02/18 05:47:58;;;;;;;;;10.00;8.00;;;;;;;;5093872;28;10674;-83
2024/02/18 05:50:25;;;;;;;;;7.25;7.25;;;;;;;;5095283;28;10695;-84
2024/02/18 05:52:53;;;;;;;;;9.00;7.75;;;;;;;;5096027;28;10581;-83
2024/02/18 05:55:20;;;;;;;;;9.50;9.50;;;;;;;;5084072;28;10580;-83
2024/02/18 05:57:48;;;;;;;;;7.75;7.75;;;;;;;;5094825;28;10719;-81
2024/02/18 06:00:18;;;;;;;;;12.00;10.25;;;;;;;;5102240;28;11109;-82
2024/02/18 06:02:45;;;;;;;;;7.75;7.75;;;;;;;;5097911;28;10695;-84
2024/02/18 06:05:17;;;;;;;;;7.25;7.25;;;;;;;;5090042;28;10610;-83
2024/02/18 06:07:45;;;;;;;;;7.50;7.50;;;;;;;;5089157;28;10674;-85
2024/02/18 06:10:12;;;;;;;;;5.00;5.00;;;;;;;;5092742;28;10729;-85
2024/02/18 06:12:40;;;;;;;;;8.50;8.50;;;;;;;;5100038;28;10658;-84
2024/02/18 06:15:10;;;;;;;;;7.50;6.50;;;;;;;;5098597;28;10868;-82
2024/02/18 06:17:38;;;;;;;;;9.75;7.50;;;;;;;;5068581;28;10712;-85
2024/02/18 06:20:06;;;;;;;;;10.00;8.00;;;;;;;;5089391;28;11426;-84
2024/02/18 06:22:33;;;;;;;;;12.00;8.25;;;;;;;;5088916;28;11486;-86
2024/02/18 06:25:02;;;;;;;;;11.00;8.00;;;;;;;;5089796;28;10708;-83
2024/02/18 06:27:29;;;;;;;;;8.50;6.50;;;;;;;;5090020;28;10774;-84
2024/02/18 06:29:59;;;;;;;;;10.25;9.00;;;;;;;;5090150;28;10503;-83
2024/02/18 06:32:31;;;;;;;;;8.25;8.25;;;;;;;;5095822;28;10675;-84
2024/02/18 06:34:59;;;;;;;;;8.00;8.00;;;;;;;;5092901;28;10605;-84
2024/02/18 06:37:26;;;;;;;;;10.50;10.50;;;;;;;;5090579;28;11408;-84
2024/02/18 06:39:53;;;;;;;;;3.50;3.50;;;;;;;;5091087;28;10755;-84
2024/02/18 06:42:20;;;;;;;;;11.50;9.50;;;;;;;;5089198;28;11345;-84
2024/02/18 06:44:48;;;;;;;;;8.25;8.25;;;;;;;;5089207;28;10691;-84
2024/02/18 06:47:15;;;;;;;;;8.25;8.25;;;;;;;;5089826;28;10810;-84
2024/02/18 06:49:44;;;;;;;;;9.25;9.25;;;;;;;;5086734;28;11547;-84
2024/02/18 06:52:13;;;;;;;;;4.75;4.75;;;;;;;;5080350;28;10673;-84
2024/02/18 06:54:41;;;;;;;;;10.25;10.25;;;;;;;;5089074;28;10621;-84
2024/02/18 06:57:08;;;;;;;;;6.25;6.25;;;;;;;;5090611;28;10620;-84
2024/02/18 06:59:36;;;;;;;;;10.00;10.00;;;;;;;;5103041;28;10521;-83
2024/02/18 07:02:04;;;;;;;;;8.25;8.25;;;;;;;;5082388;28;10614;-84
2024/02/18 07:04:34;;;;;;;;;9.25;8.00;;;;;;;;5092831;28;10652;-83
2024/02/18 07:07:04;;;;;;;;;8.25;5.25;;;;;;;;5075453;28;10668;-90
2024/02/18 07:09:31;;;;;;;;;8.75;6.50;;;;;;;;5088453;28;10515;-81
2024/02/18 07:11:59;;;;;;;;;7.25;7.25;;;;;;;;5096997;28;10705;-80
2024/02/18 07:14:26;;;;;;;;;6.75;6.75;;;;;;;;5088466;28;11515;-78
2024/02/18 07:16:53;;;;;;;;;9.25;7.00;;;;;;;;5088748;28;10598;-78
2024/02/18 07:19:20;;;;;;;;;10.00;8.25;;;;;;;;5088399;28;10701;-78
2024/02/18 07:21:48;;;;;;;;;10.25;9.00;;;;;;;;5088846;28;10612;-81
2024/02/18 07:24:16;;;;;;;;;8.00;8.00;;;;;;;;5087161;28;10703;-81
2024/02/18 07:26:43;;;;;;;;;9.00;7.00;;;;;;;;5089002;28;10945;-81
2024/02/18 07:29:11;;;;;;;;;10.25;10.25;;;;;;;;5087769;28;10724;-83
2024/02/18 07:31:38;;;;;;;;;9.50;9.50;;;;;;;;5083204;28;10828;-84
2024/02/18 07:34:06;;;;;;;;;8.75;6.25;;;;;;;;5088351;28;10789;-83
2024/02/18 07:36:33;;;;;;;;;6.00;5.25;;;;;;;;5099374;28;10679;-82
2024/02/18 07:39:01;;;;;;;;;8.75;7.50;;;;;;;;5093948;28;10671;-78
2024/02/18 07:41:31;;;;;;;;;6.50;6.50;;;;;;;;5093992;28;10654;-81
2024/02/18 07:43:59;;;;;;;;;8.00;8.00;;;;;;;;5103195;28;10711;-81
2024/02/18 07:46:28;;;;;;;;;8.75;7.75;;;;;;;;5094862;28;10669;-81
2024/02/18 07:48:56;;;;;;;;;5.00;5.00;;;;;;;;5096936;28;10582;-82
2024/02/18 07:51:23;;;;;;;;;8.00;8.00;;;;;;;;5095093;28;10448;-85
2024/02/18 07:53:50;;;;;;;;;5.50;5.50;;;;;;;;5092960;28;10583;-79
2024/02/18 07:56:17;;;;;;;;;10.00;8.00;;;;;;;;5093460;28;10486;-78
2024/02/18 07:58:46;;;;;;;;;8.75;8.75;;;;;;;;5094113;28;10733;-77
2024/02/18 08:01:14;;;;;;;;;5.25;5.25;;;;;;;;5090958;28;10487;-78
2024/02/18 08:03:41;;;;;;;;;7.25;7.25;;;;;;;;5091983;28;10500;-78
2024/02/18 08:06:09;;;;;;;;;8.00;6.00;;;;;;;;5091561;28;11623;-77
2024/02/18 08:08:41;;;;;;;;;7.00;6.50;;;;;;;;5091755;28;10638;-76
2024/02/18 08:11:09;;;;;;;;;12.00;7.25;;;;;;;;5095460;28;10589;-77
2024/02/18 08:13:36;;;;;;;;;9.00;6.25;;;;;;;;5099838;28;10565;-77
2024/02/18 08:16:07;;;;;;;;;9.00;8.25;;;;;;;;5091781;28;10646;-79
2024/02/18 08:18:35;;;;;;;;;6.00;6.00;;;;;;;;5092268;28;10483;-77
2024/02/18 08:21:02;;;;;;;;;8.00;8.00;;;;;;;;5093870;28;10597;-77
2024/02/18 08:23:32;;;;;;;;;6.50;6.00;;;;;;;;5095723;28;10386;-78
2024/02/18 08:26:03;;;;;;;;;6.25;4.75;;;;;;;;5095085;28;10378;-78
2024/02/18 08:28:33;;;;;;;;;9.25;9.25;;;;;;;;5092942;28;10296;-76
2024/02/18 08:31:00;;;;;;;;;9.00;8.00;;;;;;;;5090902;28;10327;-77
2024/02/18 08:33:33;;;;;;;;;6.00;6.00;;;;;;;;5099401;28;11055;-78
2024/02/18 08:36:02;;;;;;;;;8.75;6.00;;;;;;;;5091495;28;10355;-78
2024/02/18 08:38:33;;;;;;;;;5.75;5.75;;;;;;;;5091491;28;10297;-77
2024/02/18 08:41:03;;;;;;;;;6.50;5.00;;;;;;;;5094081;28;10371;-77
2024/02/18 08:43:30;;;;;;;;;10.25;6.00;;;;;;;;5101587;28;10358;-77
2024/02/18 08:45:58;;;;;;;;;6.75;5.25;;;;;;;;5110777;28;10265;-75
2024/02/18 08:48:25;;;;;;;;;5.75;5.75;;;;;;;;5102785;28;10373;-77
2024/02/18 08:50:57;;;;;;;;;7.50;6.00;;;;;;;;5091100;28;10138;-78
2024/02/18 08:53:24;;;;;;;;;6.00;6.00;;;;;;;;5090725;28;10420;-77
2024/02/18 08:55:51;;;;;;;;;6.00;4.00;;;;;;;;5091224;28;10263;-78
2024/02/18 08:58:18;;;;;;;;;5.25;5.25;;;;;;;;5090765;28;10337;-78
2024/02/18 09:00:47;;;;;;;;;6.00;6.00;;;;;;;;5090882;28;10203;-76
2024/02/18 09:03:14;;;;;;;;;5.75;5.75;;;;;;;;5091040;28;10150;-79
2024/02/18 09:05:42;;;;;;;;;5.25;5.25;;;;;;;;5091026;28;10512;-80
2024/02/18 09:08:10;;;;;;;;;5.00;5.00;;;;;;;;5090876;28;10168;-77
2024/02/18 09:10:38;;;;;;;;;8.25;7.75;;;;;;;;5103061;28;10911;-77
2024/02/18 09:13:09;;;;;;;;;9.75;6.00;;;;;;;;5090850;28;11173;-78
2024/02/18 09:15:37;;;;;;;;;7.00;7.00;;;;;;;;5089795;28;10948;-81
2024/02/18 09:18:04;;;;;;;;;5.75;4.75;;;;;;;;5079736;28;10238;-78
2024/02/18 09:20:32;;;;;;;;;12.00;6.50;;;;;;;;5092020;28;10153;-78
2024/02/18 09:23:00;;;;;;;;;11.00;6.00;;;;;;;;5093880;28;10196;-81
2024/02/18 09:25:33;;;;;;;;;5.00;5.00;;;;;;;;5094281;28;10251;-84
2024/02/18 09:28:09;;;;;;;;;6.75;6.75;;;;;;;;5097310;28;10050;-79
2024/02/18 09:30:37;;;;;;;;;4.25;4.00;;;;;;;;5097928;28;9994;-83
2024/02/18 09:33:08;;;;;;;;;6.25;5.75;;;;;;;;5110697;28;10224;-85
2024/02/18 09:35:35;;;;;;;;;5.00;5.00;;;;;;;;5099359;28;10086;-84
2024/02/18 09:38:06;;;;;;;;;6.00;6.00;;;;;;;;5096247;28;10286;-81
2024/02/18 09:40:35;;;;;;;;;7.50;6.25;;;;;;;;5092238;28;10300;-85
2024/02/18 09:43:02;;;;;;;;;6.50;6.50;;;;;;;;5091450;28;10252;-80
2024/02/18 09:45:35;;;;;;;;;11.00;9.00;;;;;;;;5091538;28;10339;-86
2024/02/18 09:48:07;;;;;;;;;4.75;4.75;;;;;;;;5090319;28;10369;-82
2024/02/18 09:50:35;;;;;;;;;8.00;7.00;;;;;;;;5098909;28;10314;-80
2024/02/18 09:53:05;;;;;;;;;10.50;9.75;;;;;;;;5096002;28;10501;-82
2024/02/18 09:55:34;;;;;;;;;7.50;7.50;;;;;;;;5092012;28;10474;-78
2024/02/18 09:58:02;;;;;;;;;6.75;6.00;;;;;;;;5093667;28;10278;-82
2024/02/18 10:00:29;;;;;;;;;6.00;6.00;;;;;;;;5101955;28;10237;-84
2024/02/18 10:02:58;;;;;;;;;8.00;7.25;;;;;;;;5094336;28;10391;-79
2024/02/18 10:05:26;;;;;;;;;6.00;6.00;;;;;;;;5090827;28;10371;-83
2024/02/18 10:08:02;;;;;;;;;5.50;5.50;;;;;;;;5091189;28;10319;-84
2024/02/18 10:10:34;;;;;;;;;5.50;4.75;;;;;;;;5092877;28;10315;-79
2024/02/18 10:13:05;;;;;;;;;11.75;7.00;;;;;;;;5093465;28;10315;-80
2024/02/18 10:15:32;;;;;;;;;8.50;8.50;;;;;;;;5092775;28;10344;-79
2024/02/18 10:18:01;;;;;;;;;8.50;7.00;;;;;;;;5090776;28;10242;-77
2024/02/18 10:20:32;;;;;;;;;9.00;7.00;;;;;;;;5090399;28;10066;-80
2024/02/18 10:22:59;;;;;;;;;6.00;6.00;;;;;;;;5098969;28;10032;-76
2024/02/18 10:25:27;;;;;;;;;8.75;7.00;;;;;;;;5087795;28;10230;-80
2024/02/18 10:28:02;;;;;;;;;5.00;5.00;;;;;;;;5083887;28;10308;-79
2024/02/18 10:30:33;;;;;;;;;5.75;5.00;;;;;;;;5086161;28;10143;-81
2024/02/18 10:33:02;;;;;;;;;7.00;7.00;;;;;;;;5089283;28;10239;-78
2024/02/18 10:35:31;;;;;;;;;7.00;6.00;;;;;;;;5089052;28;11144;-76
2024/02/18 10:38:02;;;;;;;;;4.25;4.25;;;;;;;;5083255;28;10265;-77
2024/02/18 10:40:35;;;;;;;;;8.50;6.00;;;;;;;;5088712;28;10167;-77
2024/02/18 10:43:06;;;;;;;;;5.25;5.00;;;;;;;;5088917;28;10170;-79
2024/02/18 10:45:34;;;;;;;;;9.25;9.25;;;;;;;;5090522;28;10174;-76
2024/02/18 10:48:04;;;;;;;;;8.50;5.75;;;;;;;;5090912;28;10315;-76
2024/02/18 10:50:36;;;;;;;;;10.25;8.75;;;;;;;;5089078;28;10197;-83
2024/02/18 10:53:16;;;;;;;;;7.25;7.00;;;;;;;;5088698;28;10283;-79
2024/02/18 10:56:02;;;;;;;;;11.00;9.00;;;;;;;;5089085;28;10233;-85
2024/02/18 10:58:47;;;;;;;;;5.75;4.00;;;;;;;;5089068;28;10062;-79
2024/02/18 11:01:15;;;;;;;;;10.00;6.00;;;;;;;;5094144;28;10972;-77
2024/02/18 11:03:47;;;;;;;;;6.00;6.00;;;;;;;;5092270;28;10207;-79
2024/02/18 11:06:15;;;;;;;;;7.00;7.00;;;;;;;;5100137;28;9904;-78
2024/02/18 11:08:43;;;;;;;;;8.25;8.25;;;;;;;;5090154;28;10108;-81
2024/02/18 11:11:12;;;;;;;;;12.75;7.25;;;;;;;;5090074;28;9959;-82
2024/02/18 11:13:41;;;;;;;;;7.75;6.50;;;;;;;;5093773;28;10096;-81
2024/02/18 11:16:10;;;;;;;;;7.75;4.75;;;;;;;;5092971;28;10044;-81
2024/02/18 11:18:38;;;;;;;;;6.25;5.00;;;;;;;;5092535;28;10088;-75
2024/02/18 11:21:06;;;;;;;;;6.00;6.00;;;;;;;;5091928;28;10343;-76
2024/02/18 11:23:33;;;;;;;;;5.50;5.50;;;;;;;;5082211;28;10085;-80
2024/02/18 11:26:01;;;;;;;;;4.50;3.75;;;;;;;;5096921;28;10118;-75
2024/02/18 11:28:30;;;;;;;;;5.75;5.75;;;;;;;;5094752;28;9926;-75
2024/02/18 11:31:01;;;;;;;;;7.50;6.50;;;;;;;;5088905;28;10101;-79
2024/02/18 11:33:34;;;;;;;;;9.00;6.00;;;;;;;;5090758;28;9961;-77
2024/02/18 11:36:13;;;;;;;;;11.00;8.00;;;;;;;;5090977;28;10236;-75
2024/02/18 11:38:45;;;;;;;;;6.25;5.00;;;;;;;;5088068;28;10089;-80
2024/02/18 11:41:20;;;;;;;;;5.00;5.00;;;;;;;;5088443;28;9916;-77
2024/02/18 11:43:52;;;;;;;;;7.25;6.25;;;;;;;;5086960;28;9931;-79
2024/02/18 11:46:23;;;;;;;;;11.50;11.00;;;;;;;;5087847;28;11343;-80
2024/02/18 11:48:50;;;;;;;;;5.50;5.50;;;;;;;;5088587;28;9929;-79
2024/02/18 11:51:17;;;;;;;;;5.00;5.00;;;;;;;;5086111;28;10083;-80
2024/02/18 11:53:44;;;;;;;;;4.75;4.75;;;;;;;;5087660;28;9856;-75
2024/02/18 11:56:13;;;;;;;;;5.00;5.00;;;;;;;;5088643;28;10000;-80
2024/02/18 11:58:40;;;;;;;;;6.50;6.50;;;;;;;;5090691;28;9773;-77
2024/02/18 12:01:08;;;;;;;;;6.50;5.00;;;;;;;;5089082;28;9895;-78
2024/02/18 12:03:36;;;;;;;;;4.00;3.50;;;;;;;;5089982;28;10755;-79
2024/02/18 12:06:05;;;;;;;;;4.75;4.75;;;;;;;;5088110;28;9772;-86
2024/02/18 12:08:32;;;;;;;;;6.25;5.00;;;;;;;;5088420;28;9970;-78
2024/02/18 12:11:06;;;;;;;;;5.00;5.00;;;;;;;;5094623;28;9809;-77
2024/02/18 12:13:34;;;;;;;;;4.50;4.50;;;;;;;;5088446;28;9783;-82
2024/02/18 12:16:06;;;;;;;;;3.75;3.75;;;;;;;;5085992;28;9964;-80
2024/02/18 12:18:34;;;;;;;;;4.00;4.00;;;;;;;;5087604;28;9887;-78
2024/02/18 12:21:02;;;;;;;;;4.25;4.25;;;;;;;;5088865;28;9615;-86
2024/02/18 12:23:39;;;;;;;;;7.00;5.00;;;;;;;;5089163;28;9682;-84
2024/02/18 12:26:06;;;;;;;;;8.50;4.75;;;;;;;;5090252;28;9733;-81
2024/02/18 12:28:33;;;;;;;;;4.50;4.50;;;;;;;;5087873;28;9797;-81
2024/02/18 12:31:01;;;;;;;;;7.25;4.25;;;;;;;;5075601;28;9701;-79
2024/02/18 12:33:34;;;;;;;;;3.75;3.75;;;;;;;;5090699;28;9679;-80
2024/02/18 12:36:02;;;;;;;;;4.25;4.25;;;;;;;;5091172;28;9626;-79
2024/02/18 12:38:35;;;;;;;;;6.00;6.00;;;;;;;;5089532;28;9705;-80
2024/02/18 12:41:03;;;;;;;;;4.00;4.00;;;;;;;;5091463;28;10581;-80
2024/02/18 12:43:30;;;;;;;;;6.25;6.25;;;;;;;;5091342;28;9636;-78
2024/02/18 12:46:00;;;;;;;;;4.75;3.75;;;;;;;;5091069;28;9571;-77
2024/02/18 12:48:32;;;;;;;;;5.00;4.00;;;;;;;;5090702;28;9540;-79
2024/02/18 12:51:12;;;;;;;;;3.00;3.00;;;;;;;;5089853;28;9541;-76
2024/02/18 12:53:39;;;;;;;;;3.50;3.50;;;;;;;;5090877;28;10354;-79
2024/02/18 12:56:07;;;;;;;;;5.50;3.75;;;;;;;;5090179;28;9649;-81
2024/02/18 12:58:36;;;;;;;;;5.00;5.00;;;;;;;;5079650;28;9604;-76
2024/02/18 13:04:03;;;;;;;;;6.00;5.00;;;;;;;;5094205;28;9452;-83
2024/02/18 13:06:32;;;;;;;;;6.00;4.00;;;;;;;;5095035;28;9742;-76
2024/02/18 13:09:02;;;;;;;;;6.25;4.50;;;;;;;;5095142;28;9614;-75
2024/02/18 13:11:32;;;;;;;;;5.75;5.75;;;;;;;;5098184;28;9725;-79
2024/02/18 13:14:02;;;;;;;;;6.00;6.00;;;;;;;;5094936;28;9654;-76
2024/02/18 13:16:32;;;;;;;;;6.25;6.00;;;;;;;;5094620;28;9768;-85
2024/02/18 13:18:59;;;;;;;;;8.75;7.00;;;;;;;;5091431;28;9712;-82
2024/02/18 13:21:27;;;;;;;;;6.25;6.25;;;;;;;;5090304;28;10507;-83
2024/02/18 13:23:55;;;;;;;;;5.50;5.50;;;;;;;;5090195;28;9600;-76
2024/02/18 13:26:22;;;;;;;;;7.00;7.00;;;;;;;;5093697;28;9540;-82
2024/02/18 13:28:50;;;;;;;;;8.00;4.50;;;;;;;;5092855;28;9730;-77
2024/02/18 13:31:17;;;;;;;;;7.25;5.75;;;;;;;;5099369;28;9589;-78
2024/02/18 13:33:44;;;;;;;;;5.00;5.00;;;;;;;;5089253;28;9541;-77
2024/02/18 13:36:12;;;;;;;;;5.25;5.25;;;;;;;;5090360;28;9504;-74
2024/02/18 13:38:40;;;;;;;;;4.50;4.50;;;;;;;;5090084;28;9570;-81
2024/02/18 13:41:09;;;;;;;;;5.00;5.00;;;;;;;;5091015;28;9464;-84
2024/02/18 13:43:36;;;;;;;;;7.00;5.00;;;;;;;;5089484;28;9598;-79
2024/02/18 13:46:03;;;;;;;;;4.33;4.33;;;;;;;;5091865;28;9398;-84
2024/02/18 13:48:38;;;;;;;;;5.00;5.00;;;;;;;;5091979;28;9322;-74
2024/02/18 13:51:07;;;;;;;;;4.00;4.00;;;;;;;;5094992;28;9318;-75
2024/02/18 13:53:35;;;;;;;;;4.33;4.33;;;;;;;;5093593;28;9076;-77
2024/02/18 13:56:02;;;;;;;;;6.00;6.00;;;;;;;;5090501;28;9409;-78
2024/02/18 13:58:34;;;;;;;;;4.67;4.67;;;;;;;;5093030;28;9402;-85
2024/02/18 14:01:05;;;;;;;;;3.67;3.67;;;;;;;;5089691;28;9277;-81
2024/02/18 14:03:33;;;;;;;;;3.67;3.67;;;;;;;;5090807;28;9230;-78
2024/02/18 14:06:03;;;;;;;;;3.00;3.00;;;;;;;;5090625;28;9259;-75
2024/02/18 14:08:36;;;;;;;;;5.00;4.00;;;;;;;;5090505;28;9314;-76
2024/02/18 14:11:03;;;;;;;;;3.00;3.00;;;;;;;;5093346;28;9304;-80
2024/02/18 14:13:37;;;;;;;;;3.00;3.00;;;;;;;;5098813;28;9260;-84
2024/02/18 14:16:07;;;;;;;;;4.00;4.00;;;;;;;;5090078;28;9322;-74
2024/02/18 14:18:36;;;;;;;;;5.00;5.00;;;;;;;;5090012;28;9360;-77
2024/02/18 14:21:04;;;;;;;;;4.75;4.75;;;;;;;;5089512;28;9314;-82
2024/02/18 14:23:31;;;;;;;;;6.00;4.00;;;;;;;;5089787;28;9501;-75
2024/02/18 14:26:02;;;;;;;;;4.00;4.00;;;;;;;;5088657;28;9455;-78
2024/02/18 14:28:36;;;;;;;;;4.33;4.00;;;;;;;;5088304;28;9402;-82
2024/02/18 14:31:03;;;;;;;;;4.33;4.00;;;;;;;;5078535;28;9212;-80
2024/02/18 14:33:33;;;;;;;;;4.00;4.00;;;;;;;;5086354;28;9243;-77
2024/02/18 14:36:09;;;;;;;;;5.67;4.00;;;;;;;;5089603;28;9249;-75
2024/02/18 14:38:36;;;;;;;;;4.67;4.67;;;;;;;;5089327;28;9178;-81
2024/02/18 14:41:04;;;;;;;;;5.00;4.00;;;;;;;;5082919;28;9423;-81
2024/02/18 14:43:32;;;;;;;;;6.00;5.00;;;;;;;;5092135;28;9249;-79
2024/02/18 14:46:04;;;;;;;;;1.33;1.33;;;;;;;;5099602;28;9505;-81
2024/02/18 14:48:32;;;;;;;;;4.00;4.00;;;;;;;;5090069;28;9420;-78